Time;durP1;ratioP1;P1;durP2;ratioP2;P2;SDS_P1;SDS_P2;PMS_P1;PMS_P2;Temp;Humidity;BMP_temperature;BMP_pressure;BME280_temperature;BME280_humidity;BME280_pressure;Samples;Min_cycle;Max_cycle;Signal;HPM_P1;HPM_P2
2022/03/20 00:00:43;;;;;;;17.85;5.50;;;;;;;6.33;28.53;101516.56;5029225;28;20053;-71
2022/03/20 00:03:11;;;;;;;18.52;6.10;;;;;;;6.30;28.67;101505.25;5018856;28;20049;-71
2022/03/20 00:05:39;;;;;;;19.25;6.75;;;;;;;6.32;29.00;101505.88;5028696;28;20481;-69
2022/03/20 00:08:08;;;;;;;24.67;6.45;;;;;;;6.26;29.20;101499.41;5023948;28;20058;-70
2022/03/20 00:10:35;;;;;;;22.35;5.75;;;;;;;6.28;29.53;101499.19;5028321;28;20049;-70
2022/03/20 00:13:05;;;;;;;18.00;6.25;;;;;;;6.29;29.79;101499.00;5029346;28;20061;-69
2022/03/20 00:15:32;;;;;;;15.70;5.88;;;;;;;6.28;29.69;101504.63;5019747;28;20449;-68
2022/03/20 00:17:59;;;;;;;17.00;6.35;;;;;;;6.27;29.72;101502.94;5018896;28;20080;-71
2022/03/20 00:20:25;;;;;;;20.63;6.47;;;;;;;6.26;30.14;101493.13;5024638;28;20491;-71
2022/03/20 00:22:52;;;;;;;22.35;6.32;;;;;;;6.29;30.20;101490.84;5029362;28;20038;-71
2022/03/20 00:25:18;;;;;;;21.63;7.00;;;;;;;6.29;30.59;101499.00;5029039;28;21360;-71
2022/03/20 00:27:45;;;;;;;17.50;7.55;;;;;;;6.27;30.23;101498.38;5025894;28;20505;-72
2022/03/20 00:30:12;;;;;;;27.83;7.70;;;;;;;6.29;30.64;101496.28;5010191;28;20053;-70
2022/03/20 00:32:38;;;;;;;19.85;8.10;;;;;;;6.27;30.83;101494.78;5025456;28;20069;-71
2022/03/20 00:35:05;;;;;;;22.92;7.38;;;;;;;6.28;30.97;101491.03;5022836;28;20081;-68
2022/03/20 00:37:32;;;;;;;19.67;7.07;;;;;;;6.30;31.27;101480.81;5023064;28;20042;-67
2022/03/20 00:39:58;;;;;;;20.55;7.50;;;;;;;6.30;31.27;101480.81;5020727;28;20049;-67
2022/03/20 00:42:26;;;;;;;19.73;7.45;;;;;;;6.28;31.27;101481.03;5030473;28;20175;-67
2022/03/20 00:44:52;;;;;;;24.15;7.75;;;;;;;6.30;31.49;101487.09;5025735;28;20038;-67
2022/03/20 00:47:18;;;;;;;20.38;7.78;;;;;;;6.35;31.66;101483.75;5031231;28;20103;-67
2022/03/20 00:49:45;;;;;;;18.60;7.35;;;;;;;6.39;31.71;101482.31;5032791;28;20044;-68
2022/03/20 00:52:11;;;;;;;17.83;7.50;;;;;;;6.38;31.88;101476.00;5032669;28;20473;-67
2022/03/20 00:54:37;;;;;;;20.43;7.60;;;;;;;6.32;31.94;101474.13;5031153;28;20050;-67
2022/03/20 00:57:04;;;;;;;22.75;7.32;;;;;;;6.32;31.78;101471.41;5032697;28;20049;-68
2022/03/20 00:59:31;;;;;;;18.00;7.60;;;;;;;6.28;31.78;101483.75;5032976;28;20144;-68
2022/03/20 01:01:57;;;;;;;18.85;7.53;;;;;;;6.24;32.15;101475.16;5031173;28;20140;-68
2022/03/20 01:04:23;;;;;;;18.60;7.80;;;;;;;6.28;32.40;101480.16;5031021;28;20064;-68
2022/03/20 01:06:49;;;;;;;18.02;7.32;;;;;;;6.24;32.52;101468.88;5029264;28;20053;-67
2022/03/20 01:09:16;;;;;;;26.48;7.82;;;;;;;6.26;32.22;101469.53;5032303;28;20100;-67
2022/03/20 01:11:42;;;;;;;22.90;7.38;;;;;;;6.26;32.52;101476.81;5031578;28;20045;-68
2022/03/20 01:14:08;;;;;;;19.33;7.20;;;;;;;6.26;32.54;101469.53;5030032;28;20041;-68
2022/03/20 01:16:35;;;;;;;20.65;7.80;;;;;;;6.25;32.38;101473.28;5031956;28;20076;-68
2022/03/20 01:19:01;;;;;;;18.95;8.20;;;;;;;6.24;32.46;101474.31;5030623;28;20064;-69
2022/03/20 01:21:30;;;;;;;20.10;8.32;;;;;;;6.24;32.41;101469.72;5031538;28;20065;-70
2022/03/20 01:23:56;;;;;;;20.98;9.18;;;;;;;6.46;33.08;101474.97;5030268;28;20049;-69
2022/03/20 01:26:23;;;;;;;25.02;9.98;;;;;;;6.64;33.69;101474.38;5032690;28;20056;-69
2022/03/20 01:28:49;;;;;;;29.13;10.65;;;;;;;6.82;34.17;101475.66;5033111;28;20132;-70
2022/03/20 01:31:16;;;;;;;25.20;10.07;;;;;;;6.97;34.36;101469.16;5030034;28;20053;-70
2022/03/20 01:33:42;;;;;;;25.90;9.70;;;;;;;7.18;34.36;101479.00;5032028;28;20501;-70
2022/03/20 01:36:08;;;;;;;21.30;10.00;;;;;;;7.15;34.05;101453.03;5032175;28;20057;-70
2022/03/20 01:38:35;;;;;;;22.73;9.27;;;;;;;7.41;34.05;101474.97;5031390;28;20580;-70
2022/03/20 01:41:01;;;;;;;28.38;8.88;;;;;;;7.45;33.79;101476.25;5031689;28;20560;-71
2022/03/20 01:43:28;;;;;;;23.55;9.20;;;;;;;7.57;33.62;101471.81;5031309;28;20064;-69
2022/03/20 01:45:55;;;;;;;19.38;7.90;;;;;;;7.55;33.70;101473.88;5015458;28;20603;-71
2022/03/20 01:48:21;;;;;;;18.15;8.18;;;;;;;7.55;33.25;101467.63;5012504;28;20053;-71
2022/03/20 01:50:47;;;;;;;20.48;7.95;;;;;;;7.55;33.16;101468.44;5024757;28;20049;-71
2022/03/20 01:53:13;;;;;;;18.30;8.23;;;;;;;7.60;33.18;101470.53;5019217;28;20053;-71
2022/03/20 01:55:40;;;;;;;17.02;8.15;;;;;;;7.52;32.98;101450.69;5031284;28;20064;-70
2022/03/20 01:58:06;;;;;;;20.30;7.55;;;;;;;7.36;32.79;101467.47;5030608;28;20135;-69
2022/03/20 02:00:33;;;;;;;17.95;7.63;;;;;;;7.13;32.62;101468.75;5030662;28;20049;-69
2022/03/20 02:03:00;;;;;;;21.90;7.55;;;;;;;6.88;32.56;101457.66;5030376;28;20532;-69
2022/03/20 02:05:27;;;;;;;17.38;7.50;;;;;;;6.61;32.65;101425.88;5031413;28;20534;-69
2022/03/20 02:07:54;;;;;;;17.20;7.60;;;;;;;6.65;32.72;101451.59;5030105;28;20045;-68
2022/03/20 02:10:20;;;;;;;17.48;7.82;;;;;;;6.53;32.82;101445.94;5031715;28;20505;-69
2022/03/20 02:12:46;;;;;;;20.02;7.55;;;;;;;6.46;33.00;101449.72;5031437;28;20053;-69
2022/03/20 02:15:14;;;;;;;16.30;7.00;;;;;;;6.38;33.14;101457.00;5030753;28;20120;-67
2022/03/20 02:17:42;;;;;;;;;;;;;;;6.36;33.22;101453.66;5024285;28;20092;-67
2022/03/20 02:20:08;;;;;;;;;;;;;;;6.28;33.36;101459.28;5031967;28;19971;-69
2022/03/20 02:22:38;;;;;;;17.50;7.83;;;;;;;6.19;33.49;101452.38;5031676;28;19939;-66
2022/03/20 02:25:05;;;;;;;18.35;7.50;;;;;;;6.16;33.54;101445.44;5016221;28;20057;-68
2022/03/20 02:27:34;;;;;;;20.88;9.40;;;;;;;6.09;33.85;101450.88;5026582;28;20046;-67
2022/03/20 02:30:03;;;;;;;16.55;8.13;;;;;;;6.03;33.72;101443.53;5029893;28;20140;-67
2022/03/20 02:32:31;;;;;;;18.83;7.63;;;;;;;5.99;34.12;101441.41;5031211;28;20119;-67
2022/03/20 02:34:59;;;;;;;21.55;7.82;;;;;;;5.97;34.04;101434.28;5026638;28;20044;-67
2022/03/20 02:37:28;;;;;;;24.38;7.38;;;;;;;5.92;34.11;101431.38;5030587;28;20103;-66
2022/03/20 02:39:56;;;;;;;19.80;7.70;;;;;;;5.93;34.10;101430.31;5031256;28;20140;-66
2022/03/20 02:42:23;;;;;;;17.83;7.43;;;;;;;5.98;34.20;101437.88;5029696;28;20049;-66
2022/03/20 02:45:03;;;;;;;21.57;8.23;;;;;;;5.95;34.17;101436.38;5026011;28;20063;-66
2022/03/20 02:47:33;;;;;;;17.42;7.72;;;;;;;5.91;34.20;101437.00;5013711;28;20312;-66
2022/03/20 02:50:03;;;;;;;21.88;7.65;;;;;;;5.92;34.38;101431.38;5030062;28;20433;-68
2022/03/20 02:52:30;;;;;;;19.83;7.45;;;;;;;5.88;34.29;101427.41;5027493;28;20049;-68
2022/03/20 02:55:01;;;;;;;23.80;8.25;;;;;;;5.87;34.57;101427.59;5027495;28;20052;-68
2022/03/20 02:57:30;;;;;;;20.67;8.02;;;;;;;5.78;34.62;101416.91;5029476;28;20421;-68
2022/03/20 03:00:00;;;;;;;21.30;8.10;;;;;;;5.79;34.49;101429.44;5007687;28;20037;-68
2022/03/20 03:02:29;;;;;;;25.85;7.97;;;;;;;5.74;34.57;101426.50;5029396;28;20048;-68
2022/03/20 03:04:57;;;;;;;22.92;8.35;;;;;;;5.70;34.41;101427.94;5030930;28;20076;-68
2022/03/20 03:07:23;;;;;;;18.50;7.72;;;;;;;5.66;34.85;101430.22;5024002;28;20429;-68
2022/03/20 03:12:34;;;;;;;24.42;8.50;;;;;;;5.69;34.99;101426.28;5030294;28;20415;-68
2022/03/20 03:15:19;;;;;;;23.37;8.90;;;;;;;5.62;35.17;101423.53;5031288;28;20150;-68
2022/03/20 03:17:46;;;;;;;29.80;13.32;;;;;;;5.46;35.17;101397.56;5027840;28;20425;-68
2022/03/20 03:20:13;;;;;;;40.45;18.45;;;;;;;5.53;35.61;101425.56;5029492;28;20583;-68
2022/03/20 03:22:39;;;;;;;29.83;13.38;;;;;;;5.52;35.58;101421.19;5029966;28;20051;-68
2022/03/20 03:25:07;;;;;;;25.90;10.73;;;;;;;5.52;35.73;101423.06;5030790;28;20041;-67
2022/03/20 03:27:34;;;;;;;20.13;10.02;;;;;;;5.51;35.77;101416.81;5029388;28;20270;-67
2022/03/20 03:30:00;;;;;;;25.30;10.13;;;;;;;5.49;35.87;101423.47;5020162;28;20211;-70
2022/03/20 03:32:26;;;;;;;26.15;10.23;;;;;;;5.45;35.90;101406.72;5030909;28;20050;-69
2022/03/20 03:37:37;;;;;;;19.25;7.40;;;;;;;5.41;36.05;101410.91;5030509;28;20053;-70
2022/03/20 03:40:07;;;;;;;20.70;7.85;;;;;;;5.34;36.04;101405.44;5043961;28;20132;-70
2022/03/20 03:42:36;;;;;;;17.23;8.10;;;;;;;5.42;36.19;101425.31;5030825;28;20477;-70
2022/03/20 03:45:03;;;;;;;18.75;7.97;;;;;;;5.42;36.08;101419.88;5029204;28;20122;-70
2022/03/20 03:47:30;;;;;;;21.83;8.27;;;;;;;5.51;35.94;101416.81;5028992;28;20052;-69
2022/03/20 03:49:56;;;;;;;16.60;7.47;;;;;;;5.51;36.05;101414.09;5027425;28;20049;-69
2022/03/20 03:52:22;;;;;;;21.75;8.52;;;;;;;5.54;36.04;101416.41;5012906;28;20136;-70
2022/03/20 03:54:48;;;;;;;23.45;8.27;;;;;;;5.49;36.00;101409.88;5005546;28;20068;-69
2022/03/20 03:57:14;;;;;;;28.25;11.68;;;;;;;5.48;36.10;101406.34;5028658;28;20052;-69
2022/03/20 03:59:41;;;;;;;33.58;13.30;;;;;;;5.46;36.10;101402.16;5011426;28;20053;-70
2022/03/20 04:02:08;;;;;;;21.75;9.40;;;;;;;5.48;36.39;101406.34;5012105;28;20156;-69
2022/03/20 04:04:34;;;;;;;24.38;9.63;;;;;;;5.33;36.24;101378.53;5029797;28;20049;-69
2022/03/20 04:07:00;;;;;;;19.05;8.10;;;;;;;5.49;36.03;101402.59;4999560;28;20053;-69
2022/03/20 04:09:26;;;;;;;21.00;8.25;;;;;;;5.50;36.08;101401.56;5029482;28;20057;-69
2022/03/20 04:11:53;;;;;;;25.98;8.25;;;;;;;5.43;36.00;101389.00;5027761;28;20416;-69
2022/03/20 04:14:20;;;;;;;34.42;9.55;;;;;;;5.49;35.87;101396.31;5030506;28;20099;-70
2022/03/20 04:16:49;;;;;;;20.40;8.30;;;;;;;5.47;36.44;101399.25;5032679;28;20050;-70
2022/03/20 04:19:15;;;;;;;24.63;9.85;;;;;;;5.48;36.44;101403.66;5033335;28;20061;-69
2022/03/20 04:21:41;;;;;;;46.25;20.50;;;;;;;5.51;36.39;101399.66;5033801;28;20135;-69
2022/03/20 04:24:08;;;;;;;34.45;13.52;;;;;;;5.45;36.46;101389.63;5020485;28;20057;-67
2022/03/20 04:26:34;;;;;;;27.00;10.45;;;;;;;5.47;36.65;101396.53;5031259;28;20045;-69
2022/03/20 04:29:01;;;;;;;22.02;9.35;;;;;;;5.42;36.78;101380.00;5033759;28;20045;-68
2022/03/20 04:31:29;;;;;;;20.05;8.18;;;;;;;5.51;36.69;101389.66;4998436;28;20045;-70
2022/03/20 04:33:56;;;;;;;18.38;7.88;;;;;;;5.43;36.95;101391.72;5028300;28;20045;-70
2022/03/20 04:36:24;;;;;;;17.65;8.05;;;;;;;5.35;37.25;101388.13;5032974;28;20553;-69
2022/03/20 04:38:52;;;;;;;20.88;8.15;;;;;;;5.38;37.27;101386.88;5033726;28;20081;-69
2022/03/20 04:41:18;;;;;;;16.55;7.25;;;;;;;5.41;37.28;101385.66;5031166;28;20668;-69
2022/03/20 04:43:47;;;;;;;16.33;7.78;;;;;;;5.48;37.30;101389.22;5030820;28;20068;-69
2022/03/20 04:46:13;;;;;;;18.58;8.20;;;;;;;5.52;37.32;101391.34;5033102;28;20068;-69
2022/03/20 04:59:41;;;;;;;29.60;9.63;;;;;;;5.57;37.92;101388.03;5032082;28;20053;-69
2022/03/20 05:02:07;;;;;;;23.85;8.95;;;;;;;5.65;38.06;101387.00;5030276;28;20486;-70
2022/03/20 05:04:33;;;;;;;21.38;8.65;;;;;;;5.70;38.13;101386.38;5031935;28;20174;-70
2022/03/20 05:07:00;;;;;;;22.42;8.60;;;;;;;5.75;38.03;101392.06;5033143;28;20512;-70
2022/03/20 05:14:57;;;;;;;28.20;10.25;;;;;;;5.85;38.12;101383.53;5032970;28;20049;-69
2022/03/20 05:17:24;;;;;;;23.83;9.25;;;;;;;5.86;38.33;101377.91;5032764;28;20033;-70
2022/03/20 05:19:50;;;;;;;22.95;10.25;;;;;;;5.90;38.18;101381.00;5028367;28;20073;-70
2022/03/20 05:22:17;;;;;;;24.98;10.10;;;;;;;5.93;38.41;101370.59;5031182;28;20098;-69
2022/03/20 05:24:43;;;;;;;18.40;9.35;;;;;;;5.94;38.36;101372.25;5032323;28;20057;-70
2022/03/20 05:27:10;;;;;;;24.38;9.30;;;;;;;6.00;38.42;101365.19;5031186;28;20136;-76
2022/03/20 05:29:36;;;;;;;23.65;10.23;;;;;;;6.02;38.66;101368.56;5029604;28;20061;-76
2022/03/20 05:32:03;;;;;;;24.85;9.20;;;;;;;6.06;38.96;101358.13;5032167;28;20070;-76
2022/03/20 05:34:29;;;;;;;;;;;;;;;6.25;38.50;101359.19;5032479;28;20049;-76
2022/03/20 05:36:58;;;;;;;27.63;10.02;;;;;;;6.18;38.51;101342.03;5022237;28;19932;-76
2022/03/20 05:39:25;;;;;;;25.42;10.07;;;;;;;6.27;38.71;101348.97;5040962;28;20055;-76
2022/03/20 05:41:51;;;;;;;21.85;9.35;;;;;;;6.32;38.53;101341.00;5031005;28;20049;-75
2022/03/20 05:44:19;;;;;;;27.92;10.15;;;;;;;6.44;38.51;101341.22;5026707;28;20053;-75
2022/03/20 05:46:48;;;;;;;23.15;9.82;;;;;;;6.46;38.43;101332.84;5022883;28;20065;-75
2022/03/20 05:49:15;;;;;;;20.83;9.40;;;;;;;6.54;38.61;101343.50;5032075;28;20551;-76
2022/03/20 05:51:41;;;;;;;35.00;16.00;;;;;;;6.65;38.59;101347.50;5030752;28;20052;-75
2022/03/20 05:54:07;;;;;;;28.65;13.20;;;;;;;6.67;38.46;101332.63;5008805;28;20479;-76
2022/03/20 05:59:20;;;;;;;22.90;9.57;;;;;;;6.74;39.34;101323.63;5031481;28;20045;-75
2022/03/20 06:01:48;;;;;;;23.80;9.23;;;;;;;6.83;39.13;101322.34;5029006;28;20540;-75
2022/03/20 06:04:15;;;;;;;20.60;8.82;;;;;;;7.01;39.17;101323.56;5029349;28;20068;-75
2022/03/20 06:06:42;;;;;;;18.55;8.57;;;;;;;7.17;38.95;101327.69;5030425;28;20053;-76
2022/03/20 06:09:09;;;;;;;21.00;8.32;;;;;;;7.29;38.82;101316.97;5030285;28;20057;-74
2022/03/20 06:11:36;;;;;;;18.33;8.75;;;;;;;7.31;39.36;101309.44;5030689;28;20049;-74
2022/03/20 06:14:03;;;;;;;15.57;7.55;;;;;;;7.41;39.11;101308.97;5029325;28;20076;-73
2022/03/20 06:16:29;;;;;;;15.35;7.47;;;;;;;7.40;39.02;101310.88;5031461;28;20053;-73
2022/03/20 06:18:55;;;;;;;18.80;7.45;;;;;;;7.54;39.14;101310.81;5030960;28;20049;-73
2022/03/20 06:21:22;;;;;;;23.65;7.85;;;;;;;7.55;39.21;101299.69;5029716;28;20053;-74
2022/03/20 06:23:49;;;;;;;16.08;7.30;;;;;;;7.61;39.16;101314.31;5030586;28;20500;-74
2022/03/20 06:26:17;;;;;;;20.85;7.32;;;;;;;7.61;39.39;101306.16;5031300;28;20049;-74
2022/03/20 06:28:43;;;;;;;;;;;;;;;7.69;39.30;101308.63;5030435;28;20107;-74
2022/03/20 06:31:10;;;;;;;23.73;6.68;;;;;;;7.75;39.03;101299.56;5024512;28;19925;-74
2022/03/20 06:33:37;;;;;;;48.97;9.32;;;;;;;7.74;39.07;101286.19;5030772;28;20049;-74
2022/03/20 06:36:05;;;;;;;14.82;6.07;;;;;;;7.84;38.78;101299.31;5028018;28;20052;-73
2022/03/20 06:38:31;;;;;;;29.15;6.45;;;;;;;7.98;38.72;101298.16;5029367;28;20264;-72
2022/03/20 06:40:58;;;;;;;17.95;6.25;;;;;;;8.05;38.79;101296.22;5011316;28;20058;-74
2022/03/20 06:43:24;;;;;;;17.60;6.53;;;;;;;7.95;38.67;101279.53;5013833;28;20052;-75
2022/03/20 06:45:52;;;;;;;21.75;6.15;;;;;;;8.09;38.55;101289.25;5028854;28;20485;-75
2022/03/20 06:48:19;;;;;;;34.90;14.90;;;;;;;8.19;38.42;101277.03;5029997;28;20056;-74
2022/03/20 06:50:45;;;;;;;26.00;10.30;;;;;;;8.12;38.23;101265.34;5029363;28;20072;-74
2022/03/20 06:53:12;;;;;;;18.50;7.35;;;;;;;8.38;38.35;101277.94;5031211;28;20596;-75
2022/03/20 06:55:38;;;;;;;15.50;6.50;;;;;;;8.22;38.27;101263.81;5024747;28;20056;-75
2022/03/20 06:58:04;;;;;;;13.50;6.28;;;;;;;8.46;38.07;101290.44;5027559;28;20053;-75
2022/03/20 07:00:31;;;;;;;16.15;6.70;;;;;;;8.55;38.05;101280.94;5029642;28;20075;-74
2022/03/20 07:03:00;;;;;;;14.48;6.45;;;;;;;8.44;38.33;101284.38;5031015;28;20057;-74
2022/03/20 07:05:28;;;;;;;12.45;5.70;;;;;;;8.57;38.07;101284.25;5028306;28;20050;-74
2022/03/20 07:07:54;;;;;;;;;;;;;;;8.69;37.90;101275.34;5029072;28;20076;-74
2022/03/20 07:10:22;;;;;;;16.88;6.57;;;;;;;8.62;37.76;101257.19;5030104;28;19924;-75
2022/03/20 07:12:50;;;;;;;21.65;6.57;;;;;;;8.77;37.58;101275.88;5028440;28;20041;-73
2022/03/20 07:15:18;;;;;;;13.20;6.05;;;;;;;8.79;37.99;101275.66;5015113;28;20041;-74
2022/03/20 07:17:44;;;;;;;15.85;6.40;;;;;;;8.79;37.96;101265.56;5028401;28;20559;-74
2022/03/20 07:20:13;;;;;;;20.65;6.60;;;;;;;8.94;37.73;101262.47;5030875;28;20057;-74
2022/03/20 07:22:40;;;;;;;48.58;17.38;;;;;;;8.97;37.87;101255.72;5028995;28;20061;-75
2022/03/20 07:30:39;;;;;;;15.20;6.45;;;;;;;8.96;37.80;101237.69;5030426;28;20136;-75
2022/03/20 07:33:05;;;;;;;17.02;7.20;;;;;;;9.07;37.55;101253.28;5029560;28;20054;-68
2022/03/20 07:35:32;;;;;;;19.27;6.90;;;;;;;9.21;37.41;101242.22;5029701;28;20041;-70
2022/03/20 07:37:58;;;;;;;19.00;6.70;;;;;;;9.29;37.35;101247.34;5029594;28;20359;-69
2022/03/20 07:40:24;;;;;;;21.95;7.00;;;;;;;9.44;37.32;101251.53;5029521;28;20057;-69
2022/03/20 07:42:50;;;;;;;26.13;7.38;;;;;;;9.37;37.70;101238.00;5018927;28;20042;-70
2022/03/20 07:45:18;;;;;;;26.77;8.20;;;;;;;9.55;37.44;101255.41;5028314;28;20575;-69
2022/03/20 07:47:45;;;;;;;;;;;;;;;9.70;37.11;101250.34;5023208;28;20481;-70
2022/03/20 07:50:11;;;;;;;25.27;7.57;;;;;;;9.72;36.90;101245.47;5026181;28;20074;-69
2022/03/20 07:52:38;;;;;;;29.15;7.15;;;;;;;9.81;36.89;101236.94;4995460;28;20037;-69
2022/03/20 07:55:05;;;;;;;17.80;7.20;;;;;;;9.86;36.85;101245.28;5030510;28;20132;-69
2022/03/20 07:57:32;;;;;;;21.52;8.10;;;;;;;9.90;36.99;101239.09;5029007;28;20144;-69
2022/03/20 07:59:58;;;;;;;23.08;9.93;;;;;;;10.01;36.51;101239.34;5030312;28;20041;-69
2022/03/20 08:02:25;;;;;;;20.05;8.65;;;;;;;10.09;36.42;101225.34;5028466;28;20465;-69
2022/03/20 08:04:54;;;;;;;19.70;7.03;;;;;;;10.18;36.40;101220.34;5029225;28;20057;-69
2022/03/20 08:07:20;;;;;;;19.30;6.55;;;;;;;10.25;36.34;101221.06;5027702;28;20050;-68
2022/03/20 08:09:47;;;;;;;16.33;6.55;;;;;;;10.29;36.25;101218.69;5020144;28;20050;-70
2022/03/20 08:12:13;;;;;;;15.55;6.47;;;;;;;10.42;35.96;101213.00;5022678;28;20293;-70
2022/03/20 08:14:41;;;;;;;18.25;7.32;;;;;;;10.51;35.78;101216.22;5025713;28;20053;-70
2022/03/20 08:17:08;;;;;;;14.85;6.25;;;;;;;10.63;35.73;101218.91;5028806;28;20568;-70
2022/03/20 08:19:34;;;;;;;25.40;7.28;;;;;;;10.78;35.57;101218.44;5026218;28;20055;-70
2022/03/20 08:22:02;;;;;;;15.52;6.45;;;;;;;10.95;35.49;101210.28;5021328;28;20412;-70
2022/03/20 08:24:28;;;;;;;15.23;7.20;;;;;;;11.00;35.38;101198.59;5028415;28;20103;-70
2022/03/20 08:26:55;;;;;;;17.10;6.35;;;;;;;11.11;35.15;101195.00;5028827;28;20041;-70
2022/03/20 08:29:21;;;;;;;13.10;6.22;;;;;;;11.24;34.81;101195.75;5028336;28;20068;-71
2022/03/20 08:31:48;;;;;;;13.55;5.95;;;;;;;11.26;34.60;101191.69;5029390;28;20046;-71
2022/03/20 08:34:15;;;;;;;20.58;8.77;;;;;;;11.27;34.50;101176.13;5028815;28;20107;-71
2022/03/20 08:36:41;;;;;;;21.58;8.20;;;;;;;11.36;34.22;101180.09;5027651;28;20058;-71
2022/03/20 08:39:08;;;;;;;17.33;6.47;;;;;;;11.38;34.22;101160.69;5027438;28;20049;-68
2022/03/20 08:41:34;;;;;;;18.80;5.72;;;;;;;11.40;34.17;101170.34;5028066;28;20417;-70
2022/03/20 08:44:02;;;;;;;13.77;5.43;;;;;;;11.51;33.83;101165.03;5019092;28;20092;-70
2022/03/20 08:46:28;;;;;;;16.30;5.38;;;;;;;11.58;33.72;101165.72;5000855;28;20464;-68
2022/03/20 08:48:55;;;;;;;17.38;6.13;;;;;;;11.59;33.51;101162.69;5024987;28;20152;-73
2022/03/20 08:51:21;;;;;;;15.35;5.88;;;;;;;11.68;33.38;101154.91;5020405;28;20100;-67
2022/03/20 08:53:48;;;;;;;14.52;5.22;;;;;;;11.79;33.22;101153.19;5017816;28;20141;-69
2022/03/20 08:56:15;;;;;;;13.60;5.50;;;;;;;11.85;32.89;101137.63;5021911;28;20505;-68
2022/03/20 08:58:41;;;;;;;14.38;4.78;;;;;;;12.07;32.42;101139.63;5025892;28;20108;-67
2022/03/20 09:01:08;;;;;;;13.45;5.00;;;;;;;12.20;32.29;101150.25;5029702;28;20464;-68
2022/03/20 09:03:34;;;;;;;13.85;4.93;;;;;;;12.26;31.94;101146.47;5022066;28;20550;-73
2022/03/20 09:06:01;;;;;;;13.20;5.35;;;;;;;12.29;31.68;101128.69;5023406;28;20057;-73
2022/03/20 09:08:27;;;;;;;13.02;4.57;;;;;;;12.44;31.44;101134.38;5026552;28;20671;-73
2022/03/20 09:10:53;;;;;;;13.88;5.05;;;;;;;12.59;31.02;101128.25;5025484;28;20072;-73
2022/03/20 09:13:19;;;;;;;13.55;4.70;;;;;;;12.66;30.87;101130.78;5030737;28;20084;-73
2022/03/20 09:18:58;;;;;;;15.95;4.20;;;;;;;12.64;30.51;101122.00;5021779;28;20054;-73
2022/03/20 09:21:25;;;;;;;16.35;7.00;;;;;;;12.86;29.96;101118.38;5023487;28;20505;-73
2022/03/20 09:23:52;;;;;;;14.63;5.03;;;;;;;13.03;29.88;101123.78;5024853;28;20275;-72
2022/03/20 09:26:18;;;;;;;13.40;4.95;;;;;;;13.16;29.64;101115.13;5030791;28;20123;-73
2022/03/20 09:28:45;;;;;;;13.75;4.82;;;;;;;13.17;29.73;101104.94;5022860;28;20120;-68
2022/03/20 09:31:11;;;;;;;17.33;4.15;;;;;;;13.36;29.44;101116.41;5030085;28;20077;-73
2022/03/20 09:33:38;;;;;;;15.38;4.13;;;;;;;13.40;28.81;101092.78;5008095;28;20049;-72
2022/03/20 09:36:06;;;;;;;11.55;4.40;;;;;;;13.53;28.49;101098.97;5028078;28;20057;-72
2022/03/20 09:38:33;;;;;;;13.23;4.03;;;;;;;13.49;27.86;101095.09;5026386;28;20046;-74
2022/03/20 09:41:03;;;;;;;16.03;4.57;;;;;;;13.52;27.46;101103.66;5042040;28;20068;-72
2022/03/20 09:43:31;;;;;;;16.40;4.30;;;;;;;13.64;27.29;101086.13;5023345;28;20100;-72
2022/03/20 09:45:58;;;;;;;15.65;3.83;;;;;;;13.69;26.95;101073.25;5020258;28;20050;-71
2022/03/20 09:48:26;;;;;;;13.43;3.72;;;;;;;13.83;26.52;101070.06;5024258;28;20053;-73
2022/03/20 09:50:53;;;;;;;10.82;3.40;;;;;;;14.09;26.10;101084.75;5024190;28;20041;-72
2022/03/20 09:53:21;;;;;;;12.85;3.33;;;;;;;14.27;25.72;101079.88;5019081;28;20076;-73
2022/03/20 09:55:47;;;;;;;12.40;3.60;;;;;;;14.42;25.63;101077.19;5029446;28;20076;-72
2022/03/20 09:58:14;;;;;;;15.20;3.50;;;;;;;14.51;25.06;101071.19;5015157;28;20061;-73
2022/03/20 10:00:40;;;;;;;13.38;3.53;;;;;;;14.57;24.66;101061.84;5030589;28;20509;-73
2022/03/20 10:03:25;;;;;;;10.85;3.22;;;;;;;14.63;24.50;101060.78;5029888;28;20092;-72
2022/03/20 10:06:16;;;;;;;19.30;6.10;;;;;;;14.76;24.37;101056.69;5023926;28;20049;-71
2022/03/20 10:09:03;;;;;;;20.40;6.65;;;;;;;14.90;24.07;101048.72;5029058;28;20068;-69
2022/03/20 10:11:31;;;;;;;;;;;;;;;14.98;23.61;101041.84;5028688;28;20057;-69
2022/03/20 10:14:13;;;;;;;8.93;3.45;;;;;;;14.97;23.00;101030.00;5029928;28;19925;-66
2022/03/20 10:16:41;;;;;;;9.18;3.63;;;;;;;15.01;23.26;101038.56;5023736;28;20056;-71
2022/03/20 10:19:22;;;;;;;;;;;;;;;15.13;23.05;101030.81;5030796;28;20053;-72
2022/03/20 10:21:52;;;;;;;11.30;3.67;;;;;;;15.16;22.75;101018.44;5039356;28;19970;-67
2022/03/20 10:24:21;;;;;;;8.93;3.35;;;;;;;15.18;22.38;101024.50;5031059;28;20084;-67
2022/03/20 10:26:52;;;;;;;13.98;3.28;;;;;;;15.26;22.28;101020.34;5027521;28;20583;-71
2022/03/20 10:29:18;;;;;;;9.45;3.13;;;;;;;15.33;22.44;101012.66;5016085;28;20062;-72
2022/03/20 10:31:49;;;;;;;11.38;3.15;;;;;;;15.48;22.22;100991.69;5025684;28;20107;-71
2022/03/20 10:34:17;;;;;;;10.90;3.22;;;;;;;15.70;22.17;100997.69;5028545;28;20065;-72
2022/03/20 10:36:43;;;;;;;;;;;;;;;15.77;22.12;100997.38;5028282;28;20053;-72
2022/03/20 10:39:11;;;;;;;18.77;3.53;;;;;;;15.82;22.00;100991.03;5016367;28;20355;-72
2022/03/20 10:41:39;;;;;;;12.32;3.40;;;;;;;15.87;21.88;100983.56;5022811;28;20848;-72
2022/03/20 10:44:14;;;;;;;11.85;4.18;;;;;;;16.01;21.64;100967.25;5029855;28;20100;-72
2022/03/20 10:46:40;;;;;;;17.48;6.75;;;;;;;15.92;21.71;100980.00;5028505;28;20060;-73
2022/03/20 10:49:07;;;;;;;20.20;4.70;;;;;;;16.02;21.74;100968.09;5030254;28;20505;-73
2022/03/20 10:51:38;;;;;;;11.48;3.00;;;;;;;16.09;21.68;100965.84;5029832;28;20053;-67
2022/03/20 10:54:07;;;;;;;12.02;3.10;;;;;;;15.99;21.11;100957.59;5020649;28;20054;-68
2022/03/20 10:56:34;;;;;;;11.23;2.70;;;;;;;15.98;20.68;100945.75;5028224;28;20545;-73
2022/03/20 10:59:11;;;;;;;12.32;2.63;;;;;;;16.12;20.49;100947.91;5029484;28;20370;-73
2022/03/20 11:01:39;;;;;;;8.82;2.30;;;;;;;16.18;20.31;100943.19;5043800;28;20037;-74
2022/03/20 11:04:08;;;;;;;13.10;3.60;;;;;;;16.22;20.06;100942.31;5022790;28;20497;-73
2022/03/20 11:06:35;;;;;;;8.38;2.50;;;;;;;16.29;19.70;100937.31;5025739;28;20050;-71
2022/03/20 11:09:04;;;;;;;9.13;2.35;;;;;;;16.29;19.37;100937.31;5028010;28;20536;-71
2022/03/20 11:11:33;;;;;;;9.80;3.22;;;;;;;16.23;19.71;100916.38;5025025;28;20053;-73
2022/03/20 11:14:03;;;;;;;12.55;2.85;;;;;;;16.43;19.43;100918.16;5026727;28;20555;-72
2022/03/20 11:16:34;;;;;;;11.60;2.60;;;;;;;16.58;19.94;100920.00;5027871;28;20064;-72
2022/03/20 11:19:04;;;;;;;11.20;2.72;;;;;;;16.80;19.89;100926.19;5030871;28;20120;-73
2022/03/20 11:21:30;;;;;;;10.40;2.30;;;;;;;17.03;19.70;100918.25;5027491;28;20421;-73
2022/03/20 11:23:58;;;;;;;7.53;2.58;;;;;;;17.19;19.56;100916.19;5029983;28;20053;-72
2022/03/20 11:26:26;;;;;;;10.20;2.60;;;;;;;17.47;19.60;100920.00;5023880;28;20077;-72
2022/03/20 11:28:56;;;;;;;17.70;2.80;;;;;;;17.70;18.94;100904.50;5025196;28;20049;-73
2022/03/20 11:31:25;;;;;;;8.93;2.67;;;;;;;17.93;18.74;100915.00;5019559;28;20536;-74
2022/03/20 11:33:52;;;;;;;11.85;2.70;;;;;;;18.20;18.42;100914.38;5018977;28;20049;-73
2022/03/20 11:36:18;;;;;;;14.07;2.80;;;;;;;18.52;17.99;100910.00;5019959;28;20080;-73
2022/03/20 11:39:07;;;;;;;12.70;4.00;;;;;;;18.94;18.38;100912.91;5027422;28;20049;-74
2022/03/20 11:41:34;;;;;;;20.67;7.20;;;;;;;19.12;17.74;100902.91;5029421;28;20472;-74
2022/03/20 11:44:14;;;;;;;22.67;12.77;;;;;;;19.46;17.74;100911.97;5030204;28;20049;-74
2022/03/20 11:46:44;;;;;;;17.88;5.50;;;;;;;19.67;18.18;100897.69;5019724;28;20037;-74
2022/03/20 11:49:21;;;;;;;14.63;4.57;;;;;;;19.78;17.70;100889.94;5016906;28;20060;-73
2022/03/20 11:51:56;;;;;;;15.63;3.40;;;;;;;19.92;17.39;100896.31;5015855;28;20052;-73
2022/03/20 11:54:32;;;;;;;18.40;3.58;;;;;;;19.93;17.46;100900.75;5012158;28;20679;-73
2022/03/20 11:57:00;;;;;;;9.90;2.78;;;;;;;20.06;17.04;100874.09;5027963;28;20059;-73
2022/03/20 11:59:47;;;;;;;15.18;3.08;;;;;;;20.01;16.66;100887.28;5026500;28;20042;-73